createdAt,value
2023-12-28T00:02:04.228Z,10.10
2023-12-28T00:04:31.061Z,10.10
2023-12-28T00:06:58.062Z,10.10
2023-12-28T00:09:24.806Z,10.20
2023-12-28T00:11:51.527Z,10.10
2023-12-28T00:14:18.194Z,10.10
2023-12-28T00:16:44.980Z,10.00
2023-12-28T00:19:12.011Z,10.10
2023-12-28T00:21:38.996Z,10.10
2023-12-28T00:24:05.954Z,10.10
2023-12-28T00:26:33.032Z,10.00
2023-12-28T00:28:59.754Z,10.00
2023-12-28T00:31:26.531Z,10.00
2023-12-28T00:33:53.430Z,10.00
2023-12-28T00:36:20.199Z,10.10
2023-12-28T00:38:46.932Z,10.00
2023-12-28T00:41:13.608Z,10.00
2023-12-28T00:43:40.238Z,10.00
2023-12-28T00:46:07.510Z,10.00
2023-12-28T00:48:34.486Z,10.00
2023-12-28T00:51:01.344Z,10.00
2023-12-28T00:53:28.201Z,10.00
2023-12-28T00:55:54.900Z,10.00
2023-12-28T00:58:21.630Z,10.00
2023-12-28T01:00:48.617Z,10.00
2023-12-28T01:03:15.674Z,10.00
2023-12-28T01:05:48.480Z,10.00
2023-12-28T01:08:15.230Z,10.00
2023-12-28T01:10:42.885Z,9.90
2023-12-28T01:13:09.572Z,10.00
2023-12-28T01:15:36.400Z,9.90
2023-12-28T01:18:03.549Z,10.00
2023-12-28T01:20:30.646Z,10.00
2023-12-28T01:22:57.325Z,10.00
2023-12-28T01:25:24.087Z,10.00
2023-12-28T01:27:50.873Z,10.10
2023-12-28T01:30:17.914Z,10.00
2023-12-28T01:32:44.690Z,10.00
2023-12-28T01:35:12.701Z,10.00
2023-12-28T01:37:39.364Z,10.00
2023-12-28T01:40:08.651Z,10.10
2023-12-28T01:42:36.610Z,10.00
2023-12-28T01:45:04.137Z,9.90
2023-12-28T01:47:31.650Z,10.00
2023-12-28T01:49:59.697Z,9.90
2023-12-28T01:52:26.771Z,9.80
2023-12-28T01:54:53.718Z,9.90
2023-12-28T01:57:20.708Z,9.80
2023-12-28T01:59:47.924Z,9.80
2023-12-28T02:02:15.425Z,9.80
2023-12-28T02:04:42.342Z,9.80
2023-12-28T02:07:09.754Z,9.80
2023-12-28T02:09:36.843Z,9.70
2023-12-28T02:12:04.499Z,9.70
2023-12-28T02:14:31.337Z,9.80
2023-12-28T02:17:29.719Z,9.80
2023-12-28T02:19:58.086Z,9.80
2023-12-28T02:22:26.617Z,9.70
2023-12-28T02:25:00.514Z,9.80
2023-12-28T02:27:28.218Z,9.80
2023-12-28T02:29:56.716Z,9.80
2023-12-28T02:32:33.360Z,9.70
2023-12-28T02:35:20.397Z,9.80
2023-12-28T02:37:51.058Z,9.80
2023-12-28T02:40:18.587Z,9.70
2023-12-28T02:42:45.583Z,9.80
2023-12-28T02:45:12.344Z,9.80
2023-12-28T02:47:39.251Z,9.80
2023-12-28T02:50:06.998Z,9.80
2023-12-28T02:52:33.694Z,9.80
2023-12-28T02:55:01.025Z,9.80
2023-12-28T02:57:27.813Z,9.70
2023-12-28T02:59:54.512Z,9.80
2023-12-28T03:02:21.491Z,9.80
2023-12-28T03:04:48.141Z,9.80
2023-12-28T03:07:14.822Z,9.70
2023-12-28T03:09:41.772Z,9.70
2023-12-28T03:12:08.541Z,9.70
2023-12-28T03:14:35.857Z,9.70
2023-12-28T03:17:02.967Z,9.60
2023-12-28T03:19:29.802Z,9.70
2023-12-28T03:21:56.557Z,9.60
2023-12-28T03:24:23.278Z,9.70
2023-12-28T03:26:49.986Z,9.60
2023-12-28T03:29:16.710Z,9.60
2023-12-28T03:31:43.517Z,9.60
2023-12-28T03:34:10.354Z,9.60
2023-12-28T03:36:37.173Z,9.50
2023-12-28T03:39:04.800Z,9.50
2023-12-28T03:41:31.454Z,9.40
2023-12-28T03:43:58.518Z,9.50
2023-12-28T03:46:25.253Z,9.40
2023-12-28T03:48:52.013Z,9.40
2023-12-28T03:51:19.256Z,9.40
2023-12-28T03:53:46.375Z,9.40
2023-12-28T03:56:28.886Z,9.40
2023-12-28T03:58:56.087Z,9.40
2023-12-28T04:01:23.891Z,9.50
2023-12-28T04:03:51.300Z,9.50
2023-12-28T04:06:18.135Z,9.40
2023-12-28T04:08:44.924Z,9.40
2023-12-28T04:11:11.698Z,9.40
2023-12-28T04:13:38.569Z,9.40
2023-12-28T04:16:05.812Z,9.40
2023-12-28T04:18:34.239Z,9.40
2023-12-28T04:21:01.048Z,9.40
2023-12-28T04:23:27.820Z,9.40
2023-12-28T04:25:54.537Z,9.40
2023-12-28T04:28:21.277Z,9.30
2023-12-28T04:30:48.119Z,9.30
2023-12-28T04:33:19.237Z,9.30
2023-12-28T04:35:46.322Z,9.30
2023-12-28T04:38:13.092Z,9.20
2023-12-28T04:40:39.984Z,9.20
2023-12-28T04:43:06.645Z,9.20
2023-12-28T04:45:33.318Z,9.30
2023-12-28T04:48:01.502Z,9.20
2023-12-28T04:50:28.380Z,9.30
2023-12-28T04:52:55.138Z,9.20
2023-12-28T04:55:22.111Z,9.20
2023-12-28T04:57:48.952Z,9.20
2023-12-28T05:00:16.281Z,9.10
2023-12-28T05:02:43.076Z,9.30
2023-12-28T05:05:13.005Z,9.20
2023-12-28T05:07:39.766Z,9.30
2023-12-28T05:10:07.765Z,9.30
2023-12-28T05:12:43.509Z,9.30
2023-12-28T05:15:11.684Z,9.20
2023-12-28T05:17:38.737Z,9.20
2023-12-28T05:20:06.327Z,9.20
2023-12-28T05:22:33.129Z,9.20
2023-12-28T05:24:59.885Z,9.30
2023-12-28T05:27:26.682Z,9.10
2023-12-28T05:29:53.472Z,9.40
2023-12-28T05:32:20.324Z,9.10
2023-12-28T05:34:47.174Z,9.10
2023-12-28T05:37:14.037Z,9.10
2023-12-28T05:39:41.535Z,9.10
2023-12-28T05:42:08.273Z,9.10
2023-12-28T05:44:35.818Z,9.10
2023-12-28T05:47:03.730Z,9.10
2023-12-28T05:49:31.681Z,9.10
2023-12-28T05:51:58.871Z,9.00
2023-12-28T05:54:27.218Z,9.00
2023-12-28T05:56:54.207Z,9.10
2023-12-28T05:59:22.572Z,9.10
2023-12-28T06:01:49.381Z,8.90
2023-12-28T06:04:16.964Z,9.00
2023-12-28T06:06:43.902Z,8.90
2023-12-28T06:09:10.827Z,8.80
2023-12-28T06:11:37.610Z,8.80
2023-12-28T06:14:04.374Z,8.90
2023-12-28T06:16:34.080Z,8.90
2023-12-28T06:19:01.686Z,8.90
2023-12-28T06:21:30.282Z,9.00
2023-12-28T06:23:58.054Z,8.90
2023-12-28T06:26:24.803Z,8.80
2023-12-28T06:28:51.702Z,8.80
2023-12-28T06:31:18.543Z,8.80
2023-12-28T06:33:45.741Z,8.70
2023-12-28T06:36:13.446Z,8.70
2023-12-28T06:38:40.326Z,8.60
2023-12-28T06:41:13.955Z,8.60
2023-12-28T06:43:41.437Z,8.50
2023-12-28T06:46:08.776Z,8.50
2023-12-28T06:48:35.729Z,8.40
2023-12-28T06:51:03.282Z,8.40
2023-12-28T06:53:30.195Z,8.40
2023-12-28T06:55:57.716Z,8.40
2023-12-28T06:58:24.524Z,8.50
2023-12-28T07:00:51.420Z,8.50
2023-12-28T07:03:18.272Z,8.50
2023-12-28T07:05:45.021Z,8.50
2023-12-28T07:08:11.817Z,8.40
2023-12-28T07:10:38.897Z,8.40
2023-12-28T07:13:05.702Z,8.30
2023-12-28T07:15:32.700Z,8.50
2023-12-28T07:18:00.046Z,8.40
2023-12-28T07:20:27.047Z,8.50
2023-12-28T07:22:55.081Z,8.40
2023-12-28T07:25:22.458Z,8.40
2023-12-28T07:27:49.204Z,8.50
2023-12-28T07:30:17.573Z,8.40
2023-12-28T07:32:45.871Z,8.30
2023-12-28T07:35:13.348Z,8.40
2023-12-28T07:37:40.262Z,8.40
2023-12-28T07:40:07.856Z,8.50
2023-12-28T07:42:34.766Z,8.40
2023-12-28T07:45:01.435Z,8.40
2023-12-28T07:47:28.393Z,8.40
2023-12-28T07:49:55.195Z,8.50
2023-12-28T07:52:21.937Z,8.40
2023-12-28T07:54:48.750Z,8.30
2023-12-28T07:57:15.533Z,8.20
2023-12-28T07:59:42.620Z,8.10
2023-12-28T08:02:09.604Z,8.10
2023-12-28T08:04:36.508Z,8.10
2023-12-28T08:07:03.487Z,8.20
2023-12-28T08:09:30.204Z,8.30
2023-12-28T08:11:57.081Z,8.20
2023-12-28T08:14:23.697Z,8.50
2023-12-28T08:16:50.472Z,8.10
2023-12-28T08:19:17.690Z,8.10
2023-12-28T08:21:44.534Z,8.20
2023-12-28T08:24:11.810Z,8.30
2023-12-28T08:26:38.532Z,8.40
2023-12-28T08:29:05.188Z,8.30
2023-12-28T08:31:32.101Z,8.20
2023-12-28T08:33:59.033Z,8.30
2023-12-28T08:36:26.132Z,8.30
2023-12-28T08:38:53.009Z,8.30
2023-12-28T08:41:27.859Z,8.30
2023-12-28T08:43:57.965Z,8.30
2023-12-28T08:46:27.328Z,8.20
2023-12-28T08:48:54.280Z,8.20
2023-12-28T08:51:21.715Z,8.30
2023-12-28T08:53:48.513Z,8.20
2023-12-28T08:56:18.403Z,8.20
2023-12-28T08:58:45.502Z,8.30
2023-12-28T09:01:22.829Z,8.40
2023-12-28T09:03:51.140Z,8.40
2023-12-28T09:06:18.513Z,8.50
2023-12-28T09:08:47.533Z,8.60
2023-12-28T09:11:14.877Z,8.40
2023-12-28T09:13:42.847Z,8.60
2023-12-28T09:16:12.375Z,8.70
2023-12-28T09:18:39.781Z,8.70
2023-12-28T09:21:08.700Z,8.80
2023-12-28T09:23:37.243Z,9.00
2023-12-28T09:26:05.938Z,9.10
2023-12-28T09:28:37.168Z,9.20
2023-12-28T09:31:05.167Z,9.20
2023-12-28T09:33:32.278Z,9.30
2023-12-28T09:35:59.467Z,9.50
2023-12-28T09:38:27.918Z,9.50
2023-12-28T09:40:56.619Z,9.70
2023-12-28T09:43:30.919Z,10.00
2023-12-28T09:45:58.060Z,9.80
2023-12-28T09:48:25.145Z,9.80
2023-12-28T09:50:55.506Z,9.80
2023-12-28T09:53:24.139Z,9.80
2023-12-28T10:03:17.338Z,10.20
2023-12-28T10:05:45.708Z,10.30
2023-12-28T10:08:14.411Z,10.40
2023-12-28T10:20:33.977Z,10.70
2023-12-28T10:23:02.673Z,10.80
2023-12-28T10:25:31.215Z,10.80
2023-12-28T10:27:58.452Z,10.90
2023-12-28T10:30:25.286Z,11.00
2023-12-28T10:32:53.715Z,11.10
2023-12-28T10:35:20.937Z,11.30
2023-12-28T10:37:53.879Z,11.30
2023-12-28T10:40:22.433Z,11.30
2023-12-28T10:43:05.557Z,11.30
2023-12-28T10:45:39.280Z,11.30
2023-12-28T10:48:08.819Z,11.40
2023-12-28T10:50:52.956Z,11.50
2023-12-28T10:53:28.106Z,11.70
2023-12-28T10:56:12.274Z,11.60
2023-12-28T10:58:44.495Z,11.40
2023-12-28T11:01:15.651Z,11.40
2023-12-28T11:03:44.416Z,11.70
2023-12-28T11:06:12.948Z,11.80
2023-12-28T11:08:43.881Z,12.10
2023-12-28T11:11:11.348Z,11.80
2023-12-28T11:13:39.238Z,12.00
2023-12-28T11:16:07.147Z,11.90
2023-12-28T11:18:34.038Z,11.90
2023-12-28T11:21:01.496Z,11.90
2023-12-28T11:23:29.272Z,12.10
2023-12-28T11:25:56.380Z,12.10
2023-12-28T11:28:24.733Z,11.90
2023-12-28T11:30:52.901Z,11.90
2023-12-28T11:33:20.128Z,11.90
2023-12-28T11:35:48.774Z,11.90
2023-12-28T11:43:22.081Z,12.10
2023-12-28T11:45:55.845Z,12.20
2023-12-28T11:48:27.800Z,12.20
2023-12-28T11:50:59.790Z,12.10
2023-12-28T11:53:27.240Z,12.20
2023-12-28T11:56:02.063Z,12.20
2023-12-28T11:58:29.072Z,12.10
2023-12-28T12:08:18.638Z,12.30
2023-12-28T12:10:45.654Z,12.40
2023-12-28T12:13:12.811Z,12.40
2023-12-28T15:37:48.648Z,11.20
2023-12-28T15:40:15.422Z,11.10
2023-12-28T15:42:42.181Z,10.90
2023-12-28T15:45:09.586Z,11.00
2023-12-28T15:47:36.407Z,10.90
2023-12-28T15:50:03.558Z,10.90
2023-12-28T15:52:30.397Z,10.80
2023-12-28T15:54:57.304Z,10.90
2023-12-28T15:57:24.842Z,10.70
2023-12-28T15:59:58.859Z,10.70
2023-12-28T16:02:26.692Z,10.60
2023-12-28T16:04:53.861Z,10.90
2023-12-28T16:07:21.089Z,10.90
2023-12-28T16:09:47.864Z,10.60
2023-12-28T16:12:14.984Z,10.70
2023-12-28T16:14:41.998Z,10.60
2023-12-28T16:17:11.534Z,10.60
2023-12-28T16:19:39.763Z,10.50
2023-12-28T16:22:10.465Z,10.60
2023-12-28T16:24:37.700Z,10.60
2023-12-28T16:27:04.730Z,10.50
2023-12-28T16:29:31.431Z,10.80
2023-12-28T16:32:01.706Z,10.50
2023-12-28T16:34:31.448Z,10.60
2023-12-28T16:36:58.220Z,10.70
2023-12-28T16:39:25.220Z,10.60
2023-12-28T16:41:51.949Z,10.50
2023-12-28T16:44:20.931Z,10.40
2023-12-28T16:46:48.547Z,10.40
2023-12-28T16:49:16.196Z,10.50
2023-12-28T16:51:43.098Z,10.40
2023-12-28T16:54:10.113Z,10.60
2023-12-28T16:56:38.597Z,10.40
2023-12-28T16:59:05.645Z,10.50
2023-12-28T17:01:37.446Z,10.60
2023-12-28T17:04:04.489Z,10.50
2023-12-28T17:06:31.606Z,10.50
2023-12-28T17:09:00.341Z,10.50
2023-12-28T17:13:54.601Z,10.40
2023-12-28T17:16:21.512Z,10.40
2023-12-28T17:18:49.081Z,10.40
2023-12-28T17:21:22.005Z,10.40
2023-12-28T17:23:49.457Z,10.40
2023-12-28T17:26:35.820Z,10.60
2023-12-28T17:29:11.482Z,10.40
2023-12-28T17:31:39.483Z,10.10
2023-12-28T17:34:07.658Z,10.30
2023-12-28T17:36:35.549Z,10.30
2023-12-28T17:39:08.456Z,10.30
2023-12-28T17:41:42.132Z,10.30
2023-12-28T17:44:14.213Z,10.30
2023-12-28T17:46:52.539Z,10.20
2023-12-28T17:49:42.846Z,10.30
2023-12-28T17:52:14.120Z,10.20
2023-12-28T17:54:41.339Z,10.20
2023-12-28T17:57:07.998Z,10.10
2023-12-28T17:59:34.787Z,10.20
2023-12-28T18:02:01.596Z,10.10
2023-12-28T18:04:30.327Z,10.10
2023-12-28T18:06:57.431Z,10.00
2023-12-28T18:09:24.310Z,10.00
2023-12-28T18:11:51.725Z,10.00
2023-12-28T18:14:19.114Z,9.70
2023-12-28T18:16:45.980Z,9.90
2023-12-28T18:19:12.946Z,10.00
2023-12-28T18:21:41.452Z,9.90
2023-12-28T18:24:08.745Z,9.90
2023-12-28T18:26:35.477Z,9.80
2023-12-28T18:29:02.305Z,9.80
2023-12-28T18:31:29.065Z,9.90
2023-12-28T18:33:55.921Z,9.90
2023-12-28T18:36:22.815Z,9.70
2023-12-28T18:38:49.653Z,9.70
2023-12-28T18:41:16.464Z,9.80
2023-12-28T18:43:43.397Z,9.70
2023-12-28T18:46:10.229Z,9.70
2023-12-28T18:48:37.926Z,9.80
2023-12-28T18:51:07.031Z,9.80
2023-12-28T18:53:33.702Z,9.80
2023-12-28T18:56:00.471Z,9.70
2023-12-28T19:00:54.542Z,9.50
2023-12-28T19:03:21.414Z,9.60
2023-12-28T19:05:50.917Z,9.50
2023-12-28T19:10:44.959Z,9.30
2023-12-28T19:13:13.345Z,9.60
2023-12-28T19:18:07.332Z,9.10
2023-12-28T19:20:34.114Z,9.50
2023-12-28T19:23:01.256Z,9.40
2023-12-28T19:25:27.960Z,9.40
2023-12-28T19:27:54.686Z,9.30
2023-12-28T19:30:22.272Z,9.40
2023-12-28T19:45:17.276Z,9.00
2023-12-28T19:47:44.098Z,9.20
2023-12-28T19:50:11.795Z,9.40
2023-12-28T19:52:40.060Z,9.30
2023-12-28T19:55:07.981Z,9.20
2023-12-28T19:57:34.735Z,9.20
2023-12-28T20:00:01.800Z,9.20
2023-12-28T20:02:31.427Z,9.20
2023-12-28T20:04:58.323Z,9.50
2023-12-28T20:07:25.098Z,9.20
2023-12-28T20:09:51.992Z,9.20
2023-12-28T20:12:18.914Z,9.30
2023-12-28T20:14:45.997Z,9.20
2023-12-28T20:17:12.852Z,9.60
2023-12-28T20:19:39.778Z,9.20
2023-12-28T20:22:06.869Z,9.30
2023-12-28T20:24:35.187Z,9.30
2023-12-28T20:27:02.026Z,9.20
2023-12-28T20:29:28.750Z,9.20
2023-12-28T20:31:55.553Z,9.20
2023-12-28T20:34:22.861Z,9.10
2023-12-28T20:36:49.731Z,9.00
2023-12-28T20:39:16.467Z,9.10
2023-12-28T20:41:43.204Z,9.00
2023-12-28T20:44:10.088Z,8.90
2023-12-28T20:46:37.043Z,9.00
2023-12-28T20:49:03.791Z,8.80
2023-12-28T20:51:30.603Z,8.90
2023-12-28T20:53:57.572Z,9.00
2023-12-28T20:56:24.304Z,9.00
2023-12-28T20:58:51.286Z,9.00
2023-12-28T21:01:18.122Z,8.90
2023-12-28T21:03:45.049Z,9.00
2023-12-28T21:06:11.820Z,9.00
2023-12-28T21:08:38.622Z,9.00
2023-12-28T21:11:05.722Z,9.00
2023-12-28T21:13:39.059Z,8.80
2023-12-28T21:16:07.693Z,8.90
2023-12-28T21:18:34.787Z,8.90
2023-12-28T21:21:09.891Z,9.00
2023-12-28T21:23:40.245Z,8.90
2023-12-28T21:26:07.069Z,9.00
2023-12-28T21:28:34.315Z,9.00
2023-12-28T21:31:01.616Z,9.00
2023-12-28T21:33:28.747Z,9.10
2023-12-28T21:35:56.644Z,9.00
2023-12-28T21:38:23.570Z,9.00
2023-12-28T21:40:50.326Z,9.10
2023-12-28T21:43:17.377Z,9.10
2023-12-28T21:45:46.765Z,9.10
2023-12-28T21:48:14.163Z,9.10
2023-12-28T21:50:41.380Z,9.00
2023-12-28T21:53:08.380Z,9.10
2023-12-28T21:55:35.247Z,9.00
2023-12-28T21:58:03.146Z,9.00
2023-12-28T22:00:30.194Z,9.10
2023-12-28T22:02:56.932Z,9.10
2023-12-28T22:05:23.641Z,9.20
2023-12-28T22:07:50.481Z,9.20
2023-12-28T22:10:17.350Z,9.30
2023-12-28T22:12:44.112Z,9.40
2023-12-28T22:15:11.858Z,9.40
2023-12-28T22:17:38.781Z,9.30
2023-12-28T22:20:06.331Z,9.30
2023-12-28T22:22:33.158Z,9.40
2023-12-28T22:24:59.926Z,9.40
2023-12-28T22:27:26.693Z,9.40
2023-12-28T22:29:53.400Z,9.30
2023-12-28T22:32:20.114Z,9.40
2023-12-28T22:34:47.840Z,9.40
2023-12-28T22:37:14.722Z,9.30
2023-12-28T22:39:43.859Z,9.20
2023-12-28T22:42:12.310Z,9.20
2023-12-28T22:44:39.035Z,9.10
2023-12-28T22:47:05.789Z,9.20
2023-12-28T22:49:32.629Z,9.10
2023-12-28T22:51:59.462Z,9.10
2023-12-28T22:54:26.501Z,9.10
2023-12-28T22:56:53.294Z,9.10
2023-12-28T22:59:20.901Z,9.10
2023-12-28T23:01:48.550Z,9.10
2023-12-28T23:04:15.644Z,9.10
2023-12-28T23:06:42.495Z,9.00
2023-12-28T23:09:09.303Z,9.10
2023-12-28T23:11:38.834Z,9.30
2023-12-28T23:14:05.544Z,9.10
2023-12-28T23:16:33.373Z,9.00
2023-12-28T23:19:00.350Z,9.00
2023-12-28T23:21:27.366Z,9.10
2023-12-28T23:23:54.141Z,9.00
2023-12-28T23:26:22.025Z,9.00
2023-12-28T23:28:49.071Z,9.00
2023-12-28T23:31:19.916Z,9.00
2023-12-28T23:33:46.915Z,8.90
2023-12-28T23:36:14.015Z,9.00
2023-12-28T23:38:41.245Z,9.20
2023-12-28T23:41:08.166Z,9.10
2023-12-28T23:43:34.982Z,9.00
2023-12-28T23:46:02.356Z,9.10
2023-12-28T23:48:30.505Z,9.00
2023-12-28T23:50:57.796Z,9.10
2023-12-28T23:53:24.529Z,9.20
2023-12-28T23:55:51.216Z,9.10
2023-12-28T23:58:18.515Z,9.10
